BAW461 LEMD-EGLL
Flight info
| Callsign | BAW461 |
|---|---|
| Flight time | 1h 46m |
| Altitude | 34000 |
| Route | SIE N858 DGO N867 NENEM DCT DIDIG UP87 ROXOG |
| Aircraft | B77W/H-SDE1E3FGHIJ3J4J5J6M1M2P2RWXYZ/LB1D1 |
Departure
| Time | 2026-05-05 21:44 |
|---|---|
| Airport | Adolfo Suárez Madrid–Barajas Airport (LEMD) |
Arrival
| Time | 2026-05-05 23:31 |
|---|---|
| Airport | London Heathrow Airport (EGLL) |
| Time | Latitude | Longitude | Altitude | Speed | Heading |
|---|---|---|---|---|---|
| 2026-05-05 21:27 | 40.49144 | -3.56635 | 1967 ft | 0 kts | 269° |
| 2026-05-05 21:35 | 40.49144 | -3.56620 | 1967 ft | 2 kts | 269° |
| 2026-05-05 21:35 | 40.49144 | -3.56606 | 1967 ft | 0 kts | 269° |
| 2026-05-05 21:36 | 40.49145 | -3.56587 | 1967 ft | 2 kts | 255° |
| 2026-05-05 21:36 | 40.49151 | -3.56569 | 1967 ft | 2 kts | 234° |
| 2026-05-05 21:36 | 40.49161 | -3.56555 | 1967 ft | 2 kts | 217° |
| 2026-05-05 21:36 | 40.49174 | -3.56545 | 1967 ft | 2 kts | 200° |
| 2026-05-05 21:37 | 40.49188 | -3.56541 | 1967 ft | 1 kts | 183° |
| 2026-05-05 21:37 | 40.49193 | -3.56540 | 1967 ft | 0 kts | 179° |
| 2026-05-05 21:39 | 40.49172 | -3.56540 | 1967 ft | 6 kts | 180° |
| 2026-05-05 21:39 | 40.49118 | -3.56540 | 1967 ft | 7 kts | 180° |
| 2026-05-05 21:39 | 40.49057 | -3.56541 | 1967 ft | 8 kts | 180° |
| 2026-05-05 21:40 | 40.48992 | -3.56541 | 1967 ft | 10 kts | 180° |
| 2026-05-05 21:40 | 40.48922 | -3.56541 | 1967 ft | 9 kts | 179° |
| 2026-05-05 21:40 | 40.48868 | -3.56570 | 1967 ft | 8 kts | 242° |
| 2026-05-05 21:40 | 40.48861 | -3.56655 | 1967 ft | 9 kts | 270° |
| 2026-05-05 21:41 | 40.48861 | -3.56748 | 1967 ft | 11 kts | 271° |
| 2026-05-05 21:41 | 40.48860 | -3.56855 | 1967 ft | 11 kts | 269° |
| 2026-05-05 21:41 | 40.48860 | -3.56958 | 1967 ft | 10 kts | 270° |
| 2026-05-05 21:41 | 40.48859 | -3.57068 | 1967 ft | 13 kts | 269° |
| 2026-05-05 21:42 | 40.48865 | -3.57186 | 1967 ft | 12 kts | 289° |
| 2026-05-05 21:42 | 40.48923 | -3.57236 | 1967 ft | 11 kts | 355° |
| 2026-05-05 21:42 | 40.49017 | -3.57256 | 1967 ft | 16 kts | 331° |
| 2026-05-05 21:42 | 40.49097 | -3.57353 | 1967 ft | 14 kts | 314° |
| 2026-05-05 21:43 | 40.49172 | -3.57436 | 1967 ft | 14 kts | 336° |
| 2026-05-05 21:43 | 40.49287 | -3.57462 | 1967 ft | 20 kts | 359° |
| 2026-05-05 21:43 | 40.49569 | -3.57463 | 1967 ft | 72 kts | 359° |
| 2026-05-05 21:43 | 40.50315 | -3.57466 | 1967 ft | 139 kts | 359° |
| 2026-05-05 21:44 | 40.51451 | -3.57473 | 2126 ft | 180 kts | 358° |
| 2026-05-05 21:44 | 40.52703 | -3.57493 | 2876 ft | 184 kts | 358° |
| 2026-05-05 21:44 | 40.53960 | -3.57495 | 3640 ft | 183 kts | 358° |
| 2026-05-05 21:44 | 40.55287 | -3.57498 | 4030 ft | 200 kts | 358° |
| 2026-05-05 21:45 | 40.56746 | -3.57505 | 4510 ft | 213 kts | 358° |
| 2026-05-05 21:45 | 40.58221 | -3.57513 | 5155 ft | 217 kts | 358° |
| 2026-05-05 21:45 | 40.59729 | -3.57458 | 5832 ft | 221 kts | 7° |
| 2026-05-05 21:45 | 40.61200 | -3.56806 | 6478 ft | 226 kts | 21° |
| 2026-05-05 21:46 | 40.62622 | -3.55938 | 7149 ft | 228 kts | 22° |
| 2026-05-05 21:46 | 40.64102 | -3.55175 | 7740 ft | 230 kts | 7° |
| 2026-05-05 21:46 | 40.65691 | -3.55202 | 8312 ft | 232 kts | 347° |
| 2026-05-05 21:46 | 40.67267 | -3.55567 | 8980 ft | 233 kts | 351° |
| 2026-05-05 21:47 | 40.68911 | -3.55733 | 9592 ft | 241 kts | 356° |
| 2026-05-05 21:47 | 40.70638 | -3.55764 | 9968 ft | 258 kts | 357° |
| 2026-05-05 21:47 | 40.72463 | -3.55765 | 10565 ft | 266 kts | 358° |
| 2026-05-05 21:47 | 40.74314 | -3.55767 | 11318 ft | 267 kts | 355° |
| 2026-05-05 21:48 | 40.76183 | -3.55961 | 11875 ft | 275 kts | 351° |
| 2026-05-05 21:48 | 40.78101 | -3.56225 | 12566 ft | 280 kts | 352° |
| 2026-05-05 21:48 | 40.80038 | -3.56464 | 13274 ft | 283 kts | 352° |
| 2026-05-05 21:48 | 40.82013 | -3.56693 | 13992 ft | 286 kts | 352° |
| 2026-05-05 21:49 | 40.83989 | -3.56917 | 14695 ft | 288 kts | 352° |
| 2026-05-05 21:49 | 40.85982 | -3.57143 | 15418 ft | 289 kts | 352° |
| 2026-05-05 21:49 | 40.87992 | -3.57371 | 16111 ft | 291 kts | 351° |
| 2026-05-05 21:49 | 40.90009 | -3.57600 | 16753 ft | 294 kts | 351° |
| 2026-05-05 21:50 | 40.92065 | -3.57835 | 17251 ft | 303 kts | 352° |
| 2026-05-05 21:50 | 40.94251 | -3.58086 | 17537 ft | 320 kts | 352° |
| 2026-05-05 21:50 | 40.96495 | -3.58342 | 17803 ft | 336 kts | 352° |
| 2026-05-05 21:50 | 40.98901 | -3.58616 | 18094 ft | 351 kts | 352° |
| 2026-05-05 21:51 | 41.01377 | -3.58898 | 18414 ft | 365 kts | 352° |
| 2026-05-05 21:51 | 41.03956 | -3.59192 | 18685 ft | 380 kts | 352° |
| 2026-05-05 21:51 | 41.06646 | -3.59500 | 18972 ft | 395 kts | 352° |
| 2026-05-05 21:51 | 41.09434 | -3.59818 | 19356 ft | 406 kts | 351° |
| 2026-05-05 21:52 | 41.15116 | -3.60465 | 20683 ft | 412 kts | 350° |
| 2026-05-05 21:52 | 41.17965 | -3.60609 | 21306 ft | 419 kts | 357° |
| 2026-05-05 21:52 | 41.20909 | -3.60134 | 21848 ft | 431 kts | 6° |
| 2026-05-05 21:53 | 41.23817 | -3.58970 | 22411 ft | 442 kts | 16° |
| 2026-05-05 21:53 | 41.26565 | -3.57133 | 22928 ft | 454 kts | 25° |
| 2026-05-05 21:53 | 41.29266 | -3.54881 | 23406 ft | 459 kts | 25° |
| 2026-05-05 21:53 | 41.32041 | -3.52779 | 23891 ft | 462 kts | 22° |
| 2026-05-05 21:54 | 41.34868 | -3.50783 | 24505 ft | 463 kts | 21° |
| 2026-05-05 21:54 | 41.37764 | -3.48866 | 25064 ft | 464 kts | 19° |
| 2026-05-05 21:54 | 41.40717 | -3.47038 | 25506 ft | 469 kts | 18° |
| 2026-05-05 21:54 | 41.43705 | -3.45254 | 25969 ft | 472 kts | 17° |
| 2026-05-05 21:55 | 41.46727 | -3.43489 | 26463 ft | 475 kts | 17° |
| 2026-05-05 21:55 | 41.49764 | -3.41744 | 26925 ft | 479 kts | 16° |
| 2026-05-05 21:55 | 41.52832 | -3.40001 | 27391 ft | 482 kts | 16° |
| 2026-05-05 21:55 | 41.55914 | -3.38263 | 27843 ft | 485 kts | 16° |
| 2026-05-05 21:56 | 41.59056 | -3.36501 | 28236 ft | 490 kts | 15° |
| 2026-05-05 21:56 | 41.62187 | -3.34752 | 28645 ft | 494 kts | 16° |
| 2026-05-05 21:56 | 41.65376 | -3.32973 | 29052 ft | 498 kts | 16° |
| 2026-05-05 21:56 | 41.68605 | -3.31174 | 29469 ft | 501 kts | 16° |
| 2026-05-05 21:57 | 41.71793 | -3.29398 | 29983 ft | 501 kts | 16° |
| 2026-05-05 21:57 | 41.75026 | -3.27596 | 30540 ft | 500 kts | 15° |
| 2026-05-05 21:57 | 41.78229 | -3.25811 | 31116 ft | 498 kts | 15° |
| 2026-05-05 21:57 | 41.81437 | -3.24022 | 31667 ft | 496 kts | 15° |
| 2026-05-05 21:58 | 41.84636 | -3.22239 | 32155 ft | 496 kts | 16° |
| 2026-05-05 21:58 | 41.87847 | -3.20447 | 32608 ft | 496 kts | 16° |
| 2026-05-05 21:58 | 41.91055 | -3.18656 | 32996 ft | 496 kts | 16° |
| 2026-05-05 21:58 | 41.94250 | -3.16871 | 33374 ft | 497 kts | 16° |
| 2026-05-05 21:59 | 41.97436 | -3.15089 | 33790 ft | 496 kts | 16° |
| 2026-05-05 21:59 | 42.00622 | -3.13305 | 33978 ft | 498 kts | 17° |
| 2026-05-05 21:59 | 42.03798 | -3.11525 | 33995 ft | 496 kts | 17° |
| 2026-05-05 22:00 | 42.10144 | -3.07961 | 34012 ft | 494 kts | 17° |
| 2026-05-05 22:00 | 42.16484 | -3.04395 | 33999 ft | 493 kts | 17° |
| 2026-05-05 22:01 | 42.22815 | -3.00826 | 33995 ft | 493 kts | 17° |
| 2026-05-05 22:01 | 42.29120 | -2.97263 | 34007 ft | 491 kts | 17° |
| 2026-05-05 22:02 | 42.35461 | -2.93674 | 34005 ft | 491 kts | 17° |
| 2026-05-05 22:02 | 42.41748 | -2.90141 | 34007 ft | 490 kts | 14° |
| 2026-05-05 22:03 | 42.48258 | -2.88351 | 34012 ft | 475 kts | 357° |
| 2026-05-05 22:03 | 42.54860 | -2.88552 | 34019 ft | 473 kts | 352° |
| 2026-05-05 22:04 | 42.61429 | -2.88899 | 34015 ft | 472 kts | 353° |
| 2026-05-05 22:04 | 42.67988 | -2.89244 | 34025 ft | 474 kts | 353° |
| 2026-05-05 22:05 | 42.74542 | -2.89588 | 34015 ft | 472 kts | 353° |
| 2026-05-05 22:05 | 42.81135 | -2.89934 | 34023 ft | 473 kts | 353° |
| 2026-05-05 22:06 | 42.87690 | -2.90278 | 34020 ft | 472 kts | 353° |
| 2026-05-05 22:06 | 42.94290 | -2.90625 | 34019 ft | 472 kts | 354° |
| 2026-05-05 22:07 | 43.00815 | -2.90969 | 34026 ft | 473 kts | 354° |
| 2026-05-05 22:07 | 43.07391 | -2.91316 | 34025 ft | 472 kts | 354° |
| 2026-05-05 22:08 | 43.13974 | -2.91664 | 34031 ft | 473 kts | 354° |
| 2026-05-05 22:08 | 43.20501 | -2.92010 | 34031 ft | 472 kts | 354° |
| 2026-05-05 22:09 | 43.27091 | -2.92360 | 34025 ft | 473 kts | 354° |
| 2026-05-05 22:09 | 43.33558 | -2.93505 | 34034 ft | 467 kts | 344° |
| 2026-05-05 22:10 | 43.39935 | -2.95489 | 34027 ft | 467 kts | 344° |
| 2026-05-05 22:10 | 43.46254 | -2.97466 | 34021 ft | 468 kts | 344° |
| 2026-05-05 22:11 | 43.52600 | -2.99454 | 34015 ft | 468 kts | 345° |
| 2026-05-05 22:11 | 43.58952 | -3.01446 | 34015 ft | 468 kts | 344° |
| 2026-05-05 22:12 | 43.65335 | -3.03452 | 34008 ft | 468 kts | 345° |
| 2026-05-05 22:12 | 43.71687 | -3.05395 | 34005 ft | 467 kts | 346° |
| 2026-05-05 22:13 | 43.78047 | -3.07210 | 34005 ft | 468 kts | 346° |
| 2026-05-05 22:13 | 43.84428 | -3.09041 | 33996 ft | 468 kts | 346° |
| 2026-05-05 22:14 | 43.90784 | -3.10872 | 33998 ft | 468 kts | 346° |
| 2026-05-05 22:14 | 43.97194 | -3.12725 | 33996 ft | 470 kts | 346° |
| 2026-05-05 22:15 | 44.03649 | -3.14065 | 33991 ft | 472 kts | 358° |
| 2026-05-05 22:15 | 44.10155 | -3.12841 | 33987 ft | 474 kts | 14° |
| 2026-05-05 22:16 | 44.16469 | -3.10124 | 33989 ft | 474 kts | 15° |
| 2026-05-05 22:16 | 44.22755 | -3.07373 | 33980 ft | 474 kts | 15° |
| 2026-05-05 22:17 | 44.29054 | -3.04614 | 33980 ft | 474 kts | 15° |
| 2026-05-05 22:17 | 44.35342 | -3.01856 | 33979 ft | 473 kts | 15° |
| 2026-05-05 22:18 | 44.41603 | -2.99106 | 33971 ft | 471 kts | 16° |
| 2026-05-05 22:18 | 44.47850 | -2.96357 | 33970 ft | 472 kts | 16° |
| 2026-05-05 22:19 | 44.54084 | -2.93607 | 33965 ft | 470 kts | 16° |
| 2026-05-05 22:19 | 44.60300 | -2.90859 | 33953 ft | 469 kts | 16° |
| 2026-05-05 22:20 | 44.66523 | -2.88102 | 33962 ft | 469 kts | 16° |
| 2026-05-05 22:20 | 44.72752 | -2.85336 | 33957 ft | 468 kts | 16° |
| 2026-05-05 22:21 | 44.78952 | -2.82577 | 33952 ft | 469 kts | 16° |
| 2026-05-05 22:21 | 44.85193 | -2.79794 | 33952 ft | 469 kts | 17° |
| 2026-05-05 22:22 | 44.91416 | -2.77011 | 33953 ft | 471 kts | 17° |
| 2026-05-05 22:22 | 44.97638 | -2.74224 | 33939 ft | 470 kts | 17° |
| 2026-05-05 22:23 | 45.03876 | -2.71422 | 33947 ft | 469 kts | 17° |
| 2026-05-05 22:23 | 45.10091 | -2.68624 | 33933 ft | 467 kts | 17° |
| 2026-05-05 22:24 | 45.16299 | -2.65824 | 33936 ft | 469 kts | 17° |
| 2026-05-05 22:24 | 45.22467 | -2.63035 | 33941 ft | 469 kts | 17° |
| 2026-05-05 22:25 | 45.28690 | -2.60215 | 33944 ft | 468 kts | 17° |
| 2026-05-05 22:25 | 45.34897 | -2.57395 | 33933 ft | 467 kts | 17° |
| 2026-05-05 22:26 | 45.41081 | -2.54580 | 33934 ft | 466 kts | 17° |
| 2026-05-05 22:26 | 45.47237 | -2.51770 | 33927 ft | 465 kts | 17° |
| 2026-05-05 22:27 | 45.53394 | -2.48954 | 33929 ft | 465 kts | 17° |
| 2026-05-05 22:27 | 45.59512 | -2.46149 | 33929 ft | 464 kts | 17° |
| 2026-05-05 22:28 | 45.65647 | -2.43330 | 33933 ft | 465 kts | 17° |
| 2026-05-05 22:28 | 45.71798 | -2.40498 | 33920 ft | 464 kts | 17° |
| 2026-05-05 22:29 | 45.77937 | -2.37664 | 33918 ft | 464 kts | 18° |
| 2026-05-05 22:29 | 45.84087 | -2.34818 | 33907 ft | 464 kts | 18° |
| 2026-05-05 22:30 | 45.90182 | -2.31991 | 33922 ft | 463 kts | 18° |
| 2026-05-05 22:30 | 45.96295 | -2.29150 | 33897 ft | 463 kts | 18° |
| 2026-05-05 22:31 | 46.02431 | -2.26290 | 33915 ft | 463 kts | 19° |
| 2026-05-05 22:31 | 46.08687 | -2.24114 | 33906 ft | 463 kts | 10° |
| 2026-05-05 22:32 | 46.15088 | -2.22570 | 33919 ft | 463 kts | 10° |
| 2026-05-05 22:32 | 46.21399 | -2.21041 | 33926 ft | 462 kts | 10° |
| 2026-05-05 22:33 | 46.27754 | -2.19493 | 33904 ft | 461 kts | 11° |
| 2026-05-05 22:33 | 46.34055 | -2.17951 | 33921 ft | 462 kts | 11° |
| 2026-05-05 22:34 | 46.40397 | -2.16393 | 33912 ft | 460 kts | 11° |
| 2026-05-05 22:34 | 46.46715 | -2.14838 | 33910 ft | 461 kts | 11° |
| 2026-05-05 22:35 | 46.53031 | -2.13279 | 33902 ft | 459 kts | 11° |
| 2026-05-05 22:35 | 46.59336 | -2.11718 | 33909 ft | 460 kts | 11° |
| 2026-05-05 22:36 | 46.65645 | -2.10153 | 33917 ft | 459 kts | 11° |
| 2026-05-05 22:36 | 46.71921 | -2.08593 | 33914 ft | 458 kts | 11° |
| 2026-05-05 22:37 | 46.78236 | -2.07018 | 33913 ft | 458 kts | 11° |
| 2026-05-05 22:37 | 46.84533 | -2.05445 | 33911 ft | 457 kts | 11° |
| 2026-05-05 22:38 | 46.90768 | -2.03883 | 33919 ft | 458 kts | 11° |
| 2026-05-05 22:38 | 46.97063 | -2.02303 | 33914 ft | 457 kts | 11° |
| 2026-05-05 22:39 | 47.03316 | -2.00737 | 33924 ft | 457 kts | 11° |
| 2026-05-05 22:39 | 47.09611 | -1.99180 | 33916 ft | 458 kts | 11° |
| 2026-05-05 22:40 | 47.15885 | -1.97626 | 33919 ft | 458 kts | 11° |
| 2026-05-05 22:40 | 47.22124 | -1.96075 | 33908 ft | 457 kts | 11° |
| 2026-05-05 22:41 | 47.28373 | -1.94517 | 33942 ft | 457 kts | 11° |
| 2026-05-05 22:41 | 47.34666 | -1.93142 | 33932 ft | 458 kts | 4° |
| 2026-05-05 22:42 | 47.41046 | -1.93519 | 33935 ft | 460 kts | 358° |
| 2026-05-05 22:42 | 47.47451 | -1.94207 | 33928 ft | 460 kts | 358° |
| 2026-05-05 22:43 | 47.53834 | -1.94891 | 33923 ft | 459 kts | 358° |
| 2026-05-05 22:43 | 47.60221 | -1.95567 | 33925 ft | 460 kts | 359° |
| 2026-05-05 22:44 | 47.66545 | -1.94669 | 33934 ft | 456 kts | 16° |
| 2026-05-05 22:44 | 47.72539 | -1.91780 | 33923 ft | 455 kts | 20° |
| 2026-05-05 22:45 | 47.78554 | -1.88712 | 33934 ft | 454 kts | 20° |
| 2026-05-05 22:45 | 47.84510 | -1.85671 | 33915 ft | 454 kts | 20° |
| 2026-05-05 22:46 | 47.90498 | -1.82606 | 33923 ft | 454 kts | 20° |
| 2026-05-05 22:46 | 47.96473 | -1.79541 | 33935 ft | 456 kts | 20° |
| 2026-05-05 22:47 | 48.02505 | -1.76441 | 33935 ft | 456 kts | 20° |
| 2026-05-05 22:47 | 48.08666 | -1.74322 | 33922 ft | 458 kts | 5° |
| 2026-05-05 22:48 | 48.15077 | -1.74243 | 33938 ft | 460 kts | 1° |
| 2026-05-05 22:48 | 48.21474 | -1.74332 | 33925 ft | 459 kts | 1° |
| 2026-05-05 22:49 | 48.27861 | -1.74415 | 33924 ft | 460 kts | 1° |
| 2026-05-05 22:49 | 48.34291 | -1.74496 | 33927 ft | 462 kts | 1° |
| 2026-05-05 22:50 | 48.40724 | -1.74576 | 33923 ft | 461 kts | 1° |
| 2026-05-05 22:50 | 48.47113 | -1.74655 | 33921 ft | 462 kts | 1° |
| 2026-05-05 22:51 | 48.53512 | -1.74733 | 33925 ft | 461 kts | 1° |
| 2026-05-05 22:51 | 48.59937 | -1.74812 | 33926 ft | 462 kts | 1° |
| 2026-05-05 22:52 | 48.66385 | -1.74891 | 33926 ft | 462 kts | 1° |
| 2026-05-05 22:52 | 48.72812 | -1.74970 | 33929 ft | 462 kts | 0° |
| 2026-05-05 22:53 | 48.79257 | -1.75049 | 33929 ft | 463 kts | 0° |
| 2026-05-05 22:53 | 48.85652 | -1.75128 | 33928 ft | 463 kts | 0° |
| 2026-05-05 22:54 | 48.92129 | -1.75202 | 33924 ft | 462 kts | 1° |
| 2026-05-05 22:54 | 48.98568 | -1.74958 | 33929 ft | 463 kts | 2° |
| 2026-05-05 22:55 | 49.05002 | -1.74689 | 33931 ft | 463 kts | 2° |
| 2026-05-05 22:55 | 49.11500 | -1.74429 | 33931 ft | 463 kts | 2° |
| 2026-05-05 22:56 | 49.17946 | -1.74176 | 33930 ft | 464 kts | 2° |
| 2026-05-05 22:56 | 49.24354 | -1.73927 | 33931 ft | 465 kts | 2° |
| 2026-05-05 22:57 | 49.30863 | -1.73676 | 33932 ft | 464 kts | 2° |
| 2026-05-05 22:57 | 49.37311 | -1.73426 | 33931 ft | 464 kts | 2° |
| 2026-05-05 22:58 | 49.43749 | -1.73177 | 33929 ft | 464 kts | 2° |
| 2026-05-05 22:58 | 49.50206 | -1.72927 | 33930 ft | 464 kts | 2° |
| 2026-05-05 22:59 | 49.56661 | -1.72676 | 33929 ft | 465 kts | 2° |
| 2026-05-05 22:59 | 49.63123 | -1.72331 | 33932 ft | 467 kts | 4° |
| 2026-05-05 23:00 | 49.72787 | -1.71483 | 33942 ft | 466 kts | 3° |
| 2026-05-05 23:00 | 49.79265 | -1.70925 | 33941 ft | 466 kts | 3° |
| 2026-05-05 23:01 | 49.85727 | -1.70372 | 33936 ft | 467 kts | 3° |
| 2026-05-05 23:01 | 49.92194 | -1.69819 | 33943 ft | 466 kts | 3° |
| 2026-05-05 23:02 | 49.98686 | -1.69193 | 33936 ft | 467 kts | 7° |
| 2026-05-05 23:02 | 50.01848 | -1.68247 | 33665 ft | 459 kts | 15° |
| 2026-05-05 23:02 | 50.04944 | -1.66819 | 32695 ft | 464 kts | 17° |
| 2026-05-05 23:03 | 50.08025 | -1.65317 | 31841 ft | 466 kts | 17° |
| 2026-05-05 23:03 | 50.11138 | -1.63797 | 31045 ft | 467 kts | 17° |
| 2026-05-05 23:03 | 50.14167 | -1.62319 | 30409 ft | 463 kts | 18° |
| 2026-05-05 23:03 | 50.17229 | -1.60825 | 29974 ft | 455 kts | 17° |
| 2026-05-05 23:04 | 50.20229 | -1.59360 | 29502 ft | 448 kts | 17° |
| 2026-05-05 23:04 | 50.23177 | -1.57921 | 29001 ft | 442 kts | 17° |
| 2026-05-05 23:04 | 50.26075 | -1.56505 | 28503 ft | 436 kts | 16° |
| 2026-05-05 23:04 | 50.28968 | -1.55090 | 28010 ft | 441 kts | 16° |
| 2026-05-05 23:05 | 50.31897 | -1.53658 | 27491 ft | 448 kts | 16° |
| 2026-05-05 23:05 | 50.34871 | -1.52201 | 26950 ft | 447 kts | 16° |
| 2026-05-05 23:05 | 50.37830 | -1.50749 | 26423 ft | 442 kts | 16° |
| 2026-05-05 23:05 | 50.40736 | -1.49322 | 25893 ft | 437 kts | 16° |
| 2026-05-05 23:06 | 50.43613 | -1.47908 | 25356 ft | 432 kts | 16° |
| 2026-05-05 23:06 | 50.46457 | -1.46508 | 24834 ft | 427 kts | 16° |
| 2026-05-05 23:06 | 50.49285 | -1.45114 | 24303 ft | 424 kts | 16° |
| 2026-05-05 23:06 | 50.52060 | -1.43744 | 23778 ft | 420 kts | 16° |
| 2026-05-05 23:07 | 50.54770 | -1.42005 | 23258 ft | 420 kts | 25° |
| 2026-05-05 23:07 | 50.57343 | -1.39850 | 22723 ft | 418 kts | 27° |
| 2026-05-05 23:07 | 50.59855 | -1.37695 | 22192 ft | 415 kts | 27° |
| 2026-05-05 23:07 | 50.62385 | -1.35520 | 21655 ft | 411 kts | 27° |
| 2026-05-05 23:08 | 50.64881 | -1.33371 | 21122 ft | 408 kts | 28° |
| 2026-05-05 23:08 | 50.67336 | -1.31256 | 20594 ft | 405 kts | 28° |
| 2026-05-05 23:08 | 50.69779 | -1.29149 | 20065 ft | 402 kts | 28° |
| 2026-05-05 23:08 | 50.72237 | -1.27028 | 19534 ft | 399 kts | 28° |
| 2026-05-05 23:09 | 50.74633 | -1.24957 | 19003 ft | 396 kts | 28° |
| 2026-05-05 23:09 | 50.77054 | -1.22854 | 18468 ft | 393 kts | 30° |
| 2026-05-05 23:09 | 50.79350 | -1.20533 | 17956 ft | 391 kts | 33° |
| 2026-05-05 23:09 | 50.81594 | -1.18174 | 17425 ft | 388 kts | 33° |
| 2026-05-05 23:10 | 50.83820 | -1.15843 | 16876 ft | 384 kts | 33° |
| 2026-05-05 23:10 | 50.86013 | -1.13552 | 16393 ft | 380 kts | 33° |
| 2026-05-05 23:10 | 50.88205 | -1.11269 | 15881 ft | 376 kts | 32° |
| 2026-05-05 23:10 | 50.90377 | -1.09010 | 15366 ft | 373 kts | 32° |
| 2026-05-05 23:11 | 50.92526 | -1.06774 | 14832 ft | 369 kts | 32° |
| 2026-05-05 23:11 | 50.94663 | -1.04551 | 14319 ft | 366 kts | 32° |
| 2026-05-05 23:11 | 50.96773 | -1.02356 | 13834 ft | 362 kts | 32° |
| 2026-05-05 23:11 | 50.98850 | -1.00195 | 13348 ft | 359 kts | 32° |
| 2026-05-05 23:12 | 51.00812 | -0.97795 | 12851 ft | 357 kts | 43° |
| 2026-05-05 23:12 | 51.02500 | -0.94935 | 12504 ft | 349 kts | 47° |
| 2026-05-05 23:12 | 51.04102 | -0.92100 | 12247 ft | 340 kts | 47° |
| 2026-05-05 23:12 | 51.05650 | -0.89346 | 11938 ft | 332 kts | 47° |
| 2026-05-05 23:13 | 51.07164 | -0.86648 | 11648 ft | 324 kts | 46° |
| 2026-05-05 23:13 | 51.08647 | -0.84005 | 11380 ft | 317 kts | 46° |
| 2026-05-05 23:13 | 51.10099 | -0.81413 | 11105 ft | 310 kts | 46° |
| 2026-05-05 23:13 | 51.11509 | -0.78896 | 10843 ft | 304 kts | 46° |
| 2026-05-05 23:14 | 51.12890 | -0.76426 | 10579 ft | 298 kts | 46° |
| 2026-05-05 23:14 | 51.14261 | -0.73972 | 10315 ft | 292 kts | 46° |
| 2026-05-05 23:14 | 51.15596 | -0.71581 | 10061 ft | 287 kts | 46° |
| 2026-05-05 23:14 | 51.16909 | -0.69228 | 9741 ft | 284 kts | 46° |
| 2026-05-05 23:15 | 51.18211 | -0.66890 | 9401 ft | 282 kts | 46° |
| 2026-05-05 23:15 | 51.19498 | -0.64579 | 9153 ft | 277 kts | 46° |
| 2026-05-05 23:15 | 51.20762 | -0.62306 | 8906 ft | 272 kts | 46° |
| 2026-05-05 23:15 | 51.22013 | -0.60054 | 8659 ft | 267 kts | 46° |
| 2026-05-05 23:16 | 51.23233 | -0.57856 | 8415 ft | 263 kts | 46° |
| 2026-05-05 23:16 | 51.24424 | -0.55710 | 8179 ft | 258 kts | 47° |
| 2026-05-05 23:16 | 51.25615 | -0.53559 | 7988 ft | 251 kts | 47° |
| 2026-05-05 23:16 | 51.26742 | -0.51525 | 7965 ft | 243 kts | 47° |
| 2026-05-05 23:17 | 51.27861 | -0.49502 | 7962 ft | 242 kts | 47° |
| 2026-05-05 23:17 | 51.28968 | -0.47501 | 7968 ft | 241 kts | 46° |
| 2026-05-05 23:17 | 51.30078 | -0.45490 | 7970 ft | 241 kts | 46° |
| 2026-05-05 23:17 | 51.31009 | -0.43245 | 7950 ft | 242 kts | 70° |
| 2026-05-05 23:18 | 51.31144 | -0.40563 | 7955 ft | 246 kts | 97° |
| 2026-05-05 23:18 | 51.30791 | -0.37865 | 7978 ft | 249 kts | 100° |
| 2026-05-05 23:18 | 51.30404 | -0.35191 | 7960 ft | 248 kts | 102° |
| 2026-05-05 23:18 | 51.29673 | -0.32754 | 7955 ft | 249 kts | 128° |
| 2026-05-05 23:19 | 51.28272 | -0.31085 | 7950 ft | 254 kts | 158° |
| 2026-05-05 23:19 | 51.26543 | -0.30714 | 7954 ft | 260 kts | 188° |
| 2026-05-05 23:19 | 51.24879 | -0.31719 | 7920 ft | 252 kts | 217° |
| 2026-05-05 23:19 | 51.23755 | -0.33754 | 7781 ft | 244 kts | 246° |
| 2026-05-05 23:20 | 51.23348 | -0.36330 | 7623 ft | 237 kts | 273° |
| 2026-05-05 23:20 | 51.23687 | -0.38823 | 7483 ft | 231 kts | 299° |
| 2026-05-05 23:20 | 51.24663 | -0.40821 | 7335 ft | 229 kts | 324° |
| 2026-05-05 23:20 | 51.26063 | -0.42024 | 7200 ft | 226 kts | 340° |
| 2026-05-05 23:21 | 51.27520 | -0.42920 | 7071 ft | 224 kts | 341° |
| 2026-05-05 23:21 | 51.28971 | -0.43827 | 6966 ft | 228 kts | 335° |
| 2026-05-05 23:21 | 51.30294 | -0.45430 | 6957 ft | 246 kts | 313° |
| 2026-05-05 23:21 | 51.31122 | -0.47733 | 6950 ft | 240 kts | 292° |
| 2026-05-05 23:22 | 51.31649 | -0.50285 | 6961 ft | 241 kts | 290° |
| 2026-05-05 23:22 | 51.32158 | -0.52850 | 6960 ft | 241 kts | 290° |
| 2026-05-05 23:22 | 51.32666 | -0.55386 | 6960 ft | 241 kts | 290° |
| 2026-05-05 23:22 | 51.33177 | -0.57918 | 6965 ft | 241 kts | 290° |
| 2026-05-05 23:23 | 51.33695 | -0.60485 | 6963 ft | 242 kts | 290° |
| 2026-05-05 23:23 | 51.34205 | -0.63021 | 6965 ft | 241 kts | 290° |
| 2026-05-05 23:23 | 51.34717 | -0.65565 | 6970 ft | 242 kts | 289° |
| 2026-05-05 23:23 | 51.35245 | -0.68175 | 6722 ft | 245 kts | 290° |
| 2026-05-05 23:24 | 51.35765 | -0.70741 | 6409 ft | 242 kts | 290° |
| 2026-05-05 23:24 | 51.36277 | -0.73280 | 6144 ft | 240 kts | 290° |
| 2026-05-05 23:24 | 51.36795 | -0.75831 | 5893 ft | 240 kts | 292° |
| 2026-05-05 23:24 | 51.37651 | -0.78023 | 5570 ft | 236 kts | 320° |
| 2026-05-05 23:25 | 51.39075 | -0.79280 | 5181 ft | 234 kts | 348° |
| 2026-05-05 23:25 | 51.40665 | -0.79294 | 4751 ft | 232 kts | 11° |
| 2026-05-05 23:25 | 51.42263 | -0.78968 | 4405 ft | 230 kts | 4° |
| 2026-05-05 23:25 | 51.43850 | -0.78888 | 4111 ft | 224 kts | 9° |
| 2026-05-05 23:26 | 51.45250 | -0.78014 | 3781 ft | 218 kts | 37° |
| 2026-05-05 23:26 | 51.46366 | -0.76389 | 3469 ft | 215 kts | 46° |
| 2026-05-05 23:26 | 51.47160 | -0.74409 | 3107 ft | 211 kts | 68° |
| 2026-05-05 23:26 | 51.47560 | -0.72290 | 2955 ft | 183 kts | 76° |
| 2026-05-05 23:27 | 51.47684 | -0.70336 | 2840 ft | 173 kts | 85° |
| 2026-05-05 23:27 | 51.47673 | -0.68512 | 2617 ft | 155 kts | 85° |
| 2026-05-05 23:27 | 51.47673 | -0.66810 | 2422 ft | 149 kts | 84° |
| 2026-05-05 23:27 | 51.47681 | -0.65154 | 2223 ft | 148 kts | 84° |
| 2026-05-05 23:28 | 51.47688 | -0.63514 | 2014 ft | 147 kts | 84° |
| 2026-05-05 23:28 | 51.47695 | -0.61902 | 1835 ft | 146 kts | 84° |
| 2026-05-05 23:28 | 51.47701 | -0.60297 | 1624 ft | 143 kts | 84° |
| 2026-05-05 23:28 | 51.47709 | -0.58713 | 1412 ft | 143 kts | 84° |
| 2026-05-05 23:29 | 51.47715 | -0.57127 | 1207 ft | 144 kts | 84° |
| 2026-05-05 23:29 | 51.47724 | -0.55501 | 998 ft | 145 kts | 85° |
| 2026-05-05 23:29 | 51.47733 | -0.53887 | 792 ft | 145 kts | 85° |
| 2026-05-05 23:29 | 51.47738 | -0.52277 | 563 ft | 145 kts | 86° |
| 2026-05-05 23:30 | 51.47740 | -0.50678 | 365 ft | 146 kts | 86° |
| 2026-05-05 23:30 | 51.47749 | -0.49059 | 167 ft | 146 kts | 87° |
| 2026-05-05 23:30 | 51.47752 | -0.47465 | 84 ft | 130 kts | 88° |
| 2026-05-05 23:30 | 51.47757 | -0.46372 | 84 ft | 63 kts | 89° |
| 2026-05-05 23:31 | 51.47758 | -0.45756 | 84 ft | 43 kts | 88° |
| 2026-05-05 23:31 | 51.47721 | -0.45489 | 84 ft | 22 kts | 143° |
| 2026-05-05 23:31 | 51.47602 | -0.45493 | 84 ft | 13 kts | 239° |
| 2026-05-05 23:31 | 51.47593 | -0.45661 | 83 ft | 18 kts | 270° |
| 2026-05-05 23:32 | 51.47594 | -0.45876 | 84 ft | 18 kts | 268° |
| 2026-05-05 23:32 | 51.47592 | -0.46076 | 84 ft | 17 kts | 271° |
| 2026-05-05 23:32 | 51.47593 | -0.46279 | 83 ft | 17 kts | 269° |
| 2026-05-05 23:32 | 51.47593 | -0.46465 | 84 ft | 16 kts | 269° |
| 2026-05-05 23:33 | 51.47592 | -0.46641 | 84 ft | 15 kts | 269° |
| 2026-05-05 23:33 | 51.47588 | -0.46808 | 83 ft | 14 kts | 264° |
| 2026-05-05 23:33 | 51.47583 | -0.46969 | 84 ft | 15 kts | 268° |
| 2026-05-05 23:33 | 51.47581 | -0.47140 | 84 ft | 16 kts | 269° |
| 2026-05-05 23:34 | 51.47573 | -0.47320 | 84 ft | 14 kts | 238° |
| 2026-05-05 23:34 | 51.47475 | -0.47357 | 84 ft | 16 kts | 179° |
| 2026-05-05 23:34 | 51.47357 | -0.47357 | 84 ft | 16 kts | 179° |
| 2026-05-05 23:34 | 51.47317 | -0.47414 | 83 ft | 7 kts | 255° |
| 2026-05-05 23:35 | 51.47317 | -0.47494 | 83 ft | 3 kts | 270° |
| 2026-05-05 23:35 | 51.47317 | -0.47498 | 83 ft | 0 kts | 270° |